createdAt,value
2023-02-02T00:00:03.155Z,939.56
2023-02-02T00:05:03.079Z,939.60
2023-02-02T00:10:02.937Z,939.62
2023-02-02T00:15:03.184Z,939.66
2023-02-02T00:20:03.081Z,939.68
2023-02-02T00:25:03.000Z,939.70
2023-02-02T00:30:03.097Z,939.80
2023-02-02T00:35:03.111Z,939.96
2023-02-02T00:40:03.219Z,940.06
2023-02-02T00:45:02.912Z,940.11
2023-02-02T00:50:03.033Z,940.19
2023-02-02T00:55:02.974Z,940.35
2023-02-02T01:00:03.094Z,940.49
2023-02-02T01:05:02.897Z,940.61
2023-02-02T01:10:03.258Z,940.66
2023-02-02T01:15:02.966Z,940.74
2023-02-02T01:20:03.035Z,940.78
2023-02-02T01:25:02.970Z,940.84
2023-02-02T01:30:03.042Z,940.88
2023-02-02T01:35:02.968Z,940.92
2023-02-02T01:40:03.134Z,940.94
2023-02-02T01:45:02.968Z,941.02
2023-02-02T01:50:02.956Z,941.04
2023-02-02T01:55:03.625Z,940.90
2023-02-02T02:00:02.993Z,940.90
2023-02-02T02:05:03.865Z,940.94
2023-02-02T02:10:03.086Z,940.94
2023-02-02T02:15:03.002Z,940.90
2023-02-02T02:20:03.074Z,940.84
2023-02-02T02:25:02.878Z,940.76
2023-02-02T02:30:03.044Z,940.72
2023-02-02T02:35:02.838Z,940.76
2023-02-02T02:40:03.004Z,940.78
2023-02-02T02:45:03.105Z,940.80
2023-02-02T02:50:03.025Z,940.76
2023-02-02T02:55:02.988Z,940.72
2023-02-02T03:00:03.068Z,940.70
2023-02-02T03:05:02.941Z,940.66
2023-02-02T03:10:03.128Z,940.59
2023-02-02T03:15:02.984Z,940.59
2023-02-02T03:20:03.033Z,940.61
2023-02-02T03:25:02.934Z,940.57
2023-02-02T03:30:03.023Z,940.59
2023-02-02T03:35:03.172Z,940.61
2023-02-02T03:40:02.964Z,940.53
2023-02-02T03:45:02.820Z,940.53
2023-02-02T03:50:03.028Z,940.49
2023-02-02T03:55:02.972Z,940.49
2023-02-02T04:00:03.170Z,940.45
2023-02-02T04:05:02.892Z,940.39
2023-02-02T04:10:03.787Z,940.37
2023-02-02T04:15:02.859Z,940.33
2023-02-02T04:20:03.106Z,940.31
2023-02-02T04:25:02.886Z,940.31
2023-02-02T04:30:03.055Z,940.29
2023-02-02T04:35:02.923Z,940.25
2023-02-02T04:40:03.061Z,940.19
2023-02-02T04:45:02.945Z,940.13
2023-02-02T04:50:03.152Z,940.06
2023-02-02T04:55:02.993Z,940.00
2023-02-02T05:00:03.091Z,939.96
2023-02-02T05:05:03.110Z,939.96
2023-02-02T05:10:03.046Z,939.92
2023-02-02T05:15:02.977Z,939.86
2023-02-02T05:20:04.045Z,939.86
2023-02-02T05:25:02.950Z,939.84
2023-02-02T05:30:03.155Z,939.84
2023-02-02T05:35:02.866Z,939.90
2023-02-02T05:40:02.992Z,939.90
2023-02-02T05:45:02.944Z,939.86
2023-02-02T05:50:04.031Z,939.88
2023-02-02T05:55:03.083Z,939.90
2023-02-02T06:00:02.946Z,939.90
2023-02-02T06:05:02.928Z,939.90
2023-02-02T06:10:03.035Z,939.90
2023-02-02T06:15:02.881Z,939.92
2023-02-02T06:20:03.060Z,939.92
2023-02-02T06:25:02.957Z,939.94
2023-02-02T06:30:02.957Z,939.92
2023-02-02T06:35:02.940Z,939.88
2023-02-02T06:40:02.965Z,939.90
2023-02-02T06:45:02.899Z,939.88
2023-02-02T06:50:03.071Z,939.86
2023-02-02T06:55:02.982Z,939.86
2023-02-02T07:00:03.038Z,939.94
2023-02-02T07:05:02.879Z,939.96
2023-02-02T07:10:03.073Z,939.94
2023-02-02T07:15:02.958Z,939.90
2023-02-02T07:20:03.087Z,939.90
2023-02-02T07:25:02.960Z,939.90
2023-02-02T07:30:03.061Z,939.96
2023-02-02T07:35:02.937Z,940.00
2023-02-02T07:40:03.059Z,939.96
2023-02-02T07:45:25.616Z,939.96
2023-02-02T07:50:03.046Z,939.98
2023-02-02T07:55:14.229Z,940.00
2023-02-02T08:00:03.294Z,940.09
2023-02-02T08:05:02.971Z,940.13
2023-02-02T08:10:03.065Z,940.15
2023-02-02T08:15:02.969Z,940.17
2023-02-02T08:20:03.194Z,940.15
2023-02-02T08:25:02.911Z,940.19
2023-02-02T08:30:03.027Z,940.25
2023-02-02T08:35:03.040Z,940.25
2023-02-02T08:40:03.090Z,940.29
2023-02-02T08:46:03.471Z,940.33
2023-02-02T08:50:03.044Z,940.37
2023-02-02T08:55:02.997Z,940.43
2023-02-02T09:00:03.031Z,940.51
2023-02-02T09:05:02.843Z,940.51
2023-02-02T09:10:02.979Z,940.53
2023-02-02T09:15:02.825Z,940.63
2023-02-02T09:20:02.991Z,940.68
2023-02-02T09:25:03.026Z,940.80
2023-02-02T09:30:03.010Z,940.84
2023-02-02T09:35:02.964Z,940.86
2023-02-02T09:40:03.004Z,941.04
2023-02-02T09:45:02.954Z,941.06
2023-02-02T09:50:03.033Z,941.13
2023-02-02T09:55:03.105Z,941.19
2023-02-02T10:00:03.025Z,941.23
2023-02-02T10:05:02.846Z,941.27
2023-02-02T10:10:03.184Z,941.31
2023-02-02T10:15:02.997Z,941.33
2023-02-02T10:20:03.057Z,941.39
2023-02-02T10:25:02.966Z,941.43
2023-02-02T10:30:03.060Z,941.49
2023-02-02T10:35:12.846Z,941.53
2023-02-02T10:40:03.193Z,941.53
2023-02-02T10:45:02.867Z,941.51
2023-02-02T10:50:03.003Z,941.53
2023-02-02T10:55:04.418Z,941.53
2023-02-02T11:00:03.096Z,941.59
2023-02-02T11:05:02.933Z,941.61
2023-02-02T11:10:02.969Z,941.64
2023-02-02T11:15:02.862Z,941.72
2023-02-02T11:20:03.003Z,941.74
2023-02-02T11:25:02.964Z,941.76
2023-02-02T11:30:03.072Z,941.78
2023-02-02T11:35:02.983Z,941.76
2023-02-02T11:40:03.070Z,941.80
2023-02-02T11:45:02.997Z,941.76
2023-02-02T11:50:02.987Z,941.68
2023-02-02T11:55:02.936Z,941.68
2023-02-02T12:00:02.984Z,941.66
2023-02-02T12:05:02.827Z,941.68
2023-02-02T12:10:03.093Z,941.70
2023-02-02T12:15:02.921Z,941.68
2023-02-02T12:20:03.065Z,941.63
2023-02-02T12:25:02.940Z,941.59
2023-02-02T12:30:03.042Z,941.63
2023-02-02T12:35:02.816Z,941.66
2023-02-02T12:40:03.039Z,941.70
2023-02-02T12:45:02.854Z,941.72
2023-02-02T12:50:03.037Z,941.74
2023-02-02T12:55:02.836Z,941.76
2023-02-02T13:00:03.101Z,941.78
2023-02-02T13:05:02.956Z,941.86
2023-02-02T13:10:03.040Z,941.84
2023-02-02T13:15:02.957Z,941.88
2023-02-02T13:20:03.113Z,941.88
2023-02-02T13:25:02.982Z,941.90
2023-02-02T13:30:02.977Z,941.84
2023-02-02T13:35:02.964Z,941.82
2023-02-02T13:40:03.142Z,941.76
2023-02-02T13:45:02.858Z,941.76
2023-02-02T13:50:02.999Z,941.66
2023-02-02T13:55:02.971Z,941.57
2023-02-02T14:00:03.071Z,941.59
2023-02-02T14:05:02.879Z,941.55
2023-02-02T14:10:03.191Z,941.57
2023-02-02T14:15:02.904Z,941.51
2023-02-02T14:20:03.065Z,941.55
2023-02-02T14:25:02.926Z,941.53
2023-02-02T14:30:03.019Z,941.51
2023-02-02T14:35:02.937Z,941.45
2023-02-02T14:40:02.991Z,941.41
2023-02-02T14:45:02.925Z,941.29
2023-02-02T14:50:03.037Z,941.17
2023-02-02T14:55:02.992Z,941.11
2023-02-02T15:00:03.042Z,941.06
2023-02-02T15:05:02.869Z,940.92
2023-02-02T15:10:03.026Z,940.84
2023-02-02T15:15:02.865Z,940.76
2023-02-02T15:20:03.106Z,940.63
2023-02-02T15:25:02.855Z,940.55
2023-02-02T15:30:03.149Z,940.51
2023-02-02T15:35:02.873Z,940.43
2023-02-02T15:40:03.063Z,940.47
2023-02-02T15:45:03.249Z,940.43
2023-02-02T15:50:03.042Z,940.35
2023-02-02T15:55:03.141Z,940.25
2023-02-02T16:00:03.148Z,940.21
2023-02-02T16:05:02.897Z,940.15
2023-02-02T16:10:03.054Z,940.11
2023-02-02T16:15:03.013Z,940.04
2023-02-02T16:20:03.084Z,939.96
2023-02-02T16:25:05.763Z,939.94
2023-02-02T16:30:03.068Z,939.86
2023-02-02T16:35:09.172Z,939.80
2023-02-02T16:40:04.799Z,939.72
2023-02-02T16:45:04.563Z,939.66
2023-02-02T16:50:04.491Z,939.60
2023-02-02T16:55:06.786Z,939.53
2023-02-02T17:00:04.348Z,939.51
2023-02-02T17:05:03.055Z,939.45
2023-02-02T17:10:11.794Z,939.45
2023-02-02T17:15:02.919Z,939.37
2023-02-02T17:20:03.971Z,939.15
2023-02-02T17:25:02.900Z,939.04
2023-02-02T17:30:04.577Z,939.04
2023-02-02T17:35:05.401Z,939.04
2023-02-02T17:40:03.782Z,939.02
2023-02-02T17:45:05.590Z,938.90
2023-02-02T17:50:03.219Z,938.82
2023-02-02T17:55:05.950Z,938.84
2023-02-02T18:00:04.640Z,938.92
2023-02-02T18:05:05.329Z,938.92
2023-02-02T18:10:03.418Z,938.92
2023-02-02T18:15:04.411Z,938.84
2023-02-02T18:20:04.842Z,938.74
2023-02-02T18:25:07.406Z,938.51
2023-02-02T18:30:04.934Z,938.33
2023-02-02T18:35:02.961Z,938.23
2023-02-02T18:40:03.686Z,938.02
2023-02-02T18:45:02.890Z,938.00
2023-02-02T18:50:03.576Z,937.92
2023-02-02T18:55:03.479Z,937.86
2023-02-02T19:00:05.460Z,937.74
2023-02-02T19:05:04.718Z,937.68
2023-02-02T19:10:03.162Z,937.59
2023-02-02T19:15:04.610Z,937.45
2023-02-02T19:20:04.581Z,937.31
2023-02-02T19:25:04.578Z,937.09
2023-02-02T19:30:05.944Z,937.00
2023-02-02T19:35:11.698Z,936.84
2023-02-02T19:40:03.010Z,936.80
2023-02-02T19:45:04.758Z,936.78
2023-02-02T19:50:03.311Z,936.88
2023-02-02T19:55:03.273Z,936.90
2023-02-02T20:00:03.593Z,936.88
2023-02-02T20:05:02.931Z,936.96
2023-02-02T20:10:03.086Z,936.92
2023-02-02T20:15:03.637Z,936.86
2023-02-02T20:20:08.212Z,936.94
2023-02-02T20:25:03.131Z,936.86
2023-02-02T20:30:05.119Z,936.84
2023-02-02T20:35:03.046Z,936.96
2023-02-02T20:40:04.685Z,937.02
2023-02-02T20:45:02.981Z,937.09
2023-02-02T20:50:03.918Z,937.15
2023-02-02T20:55:06.085Z,937.27
2023-02-02T21:00:03.040Z,937.45
2023-02-02T21:05:08.843Z,937.41
2023-02-02T21:10:03.143Z,937.43
2023-02-02T21:15:04.575Z,937.51
2023-02-02T21:20:03.726Z,937.53
2023-02-02T21:25:03.014Z,937.60
2023-02-02T21:30:15.658Z,937.72
2023-02-02T21:35:04.243Z,937.86
2023-02-02T21:40:02.936Z,937.90
2023-02-02T21:45:05.379Z,938.02
2023-02-02T21:50:03.146Z,938.08
2023-02-02T21:55:02.941Z,938.11
2023-02-02T22:00:03.169Z,937.94
2023-02-02T22:05:02.968Z,937.98
2023-02-02T22:10:02.984Z,938.17
2023-02-02T22:15:02.953Z,938.45
2023-02-02T22:20:03.059Z,938.52
2023-02-02T22:25:03.079Z,938.72
2023-02-02T22:30:03.120Z,938.86
2023-02-02T22:35:02.980Z,938.74
2023-02-02T22:40:03.214Z,938.74
2023-02-02T22:45:02.861Z,938.82
2023-02-02T22:50:03.140Z,938.74
2023-02-02T22:55:02.931Z,938.80
2023-02-02T23:00:03.111Z,939.02
2023-02-02T23:05:02.961Z,938.96
2023-02-02T23:10:02.979Z,938.98
2023-02-02T23:15:02.915Z,939.07
2023-02-02T23:20:03.138Z,939.19
2023-02-02T23:25:03.141Z,939.19
2023-02-02T23:30:03.432Z,939.11
2023-02-02T23:35:03.021Z,939.13
2023-02-02T23:40:03.085Z,939.25
2023-02-02T23:45:03.238Z,939.31
2023-02-02T23:50:08.043Z,939.35
2023-02-02T23:55:02.999Z,939.27
